Terminal Aerodrome Forecast
Issued by NWS Goodland, KS

Home | Current Version | Previous Version | Text Only | Print | Product List | Glossary On
Versions: 1 2 3 4 5 6 7 8 9 10 11 12 13 14 15 16 17
000
FTUS43 KGLD 050541
TAFGLD
TAF
KGLD 050541Z 0506/0606 06011KT 6SM BR BKN006
      TEMPO 0506/0507 SCT006
     FM050700 07008KT 6SM BR OVC004
     FM050800 07008KT 2SM BR OVC005
     FM051600 14015G20KT 4SM BR OVC015
     FM051700 14015G20KT P6SM VCSH OVC017
     FM060200 17015KT P6SM OVC004=

USA.gov is the U.S. government's official web portal to all federal, state and local government web resources and services.